Aeroporto :
LOGIN :

Iscrizione | Disclaimer

   EN    FR    IT 

 










Sommario :    VFR   VFR Marginale   IFR   IFR Intensivo   IFR Molto Intensivo
Visibilità : 
Base nubi : 
>= 8 km
>= 3000ft
5 / 8 km
1000 / 3000 ft
1500m / 5 km
500 / 1000 ft
800 / 1500m
200 / 500 ft
< 800m
< 200 ft
Simboli :   Temporali  Nebbia  Neve Forte  Precipitazioni Forti  Vento > 20 kt
SIGMETs :   Varie  Temporali  Ghiacco  Turbolenza  Onda orograficha  Ceneri Vulcaniche







- Altitudine del aeroporto : 665 ft
- Codice IATA : NOC


EIKN - Connaught / Knock- Ireland West

ULTIMO METAR :
  • 181330Z 29012KT 260V320 5000 -RADZ BKN003 OVC009 08/08 Q1020 NOSIG

METARs OBSOLETI :
  • 181300Z 29014KT 9999 -RA BKN010 BKN018 OVC026 08/08 Q1019 NOSIG
  • 181230Z 29016KT 9999 -RA BKN010 BKN015 OVC026 08/08 Q1019 NOSIG
  • 181200Z 29014KT 9999 -RA BKN012 BKN018 BKN028 08/07 Q1019 NOSIG
  • 181130Z 29016KT 9999 -RA SCT009 BKN015 BKN028 08/08 Q1019 NOSIG
  • 181100Z 29015KT 9999 -RA BKN012 BKN018 OVC025 07/07 Q1019 NOSIG

TAF TAF EIKN
Valido dal 18 a 12 ore il 19 a 12 ore UTC


181100Z 1812/1912 27011KT 5000 -RA SCT005 BKN010 OVC020
TEMPO 1812/1818 4000 -RADZ BKN004
BECMG 1902/1904 19007KT 4000 -RADZ BKN006
TEMPO 1903/1910 3000 BKN003
BECMG 1911/1912 9999 BKN020
Nessun NOTAM noto per questo aeroporto.



MetMap, La meteo Aeronautica in un colpo d'occhio ! - Copyright ORBIFLY Dicembre 2007 - Disclaimer

ORBIFLY MET'MAP TEAM :

Programmazione e sviluppo : Alexandra Zaïnal
Concezione e sviluppo : Baudouin d'Aumeries
Co-Programmazione e sviluppo : Marc-Olivier Méhu
Supporto tecnico e logistico : Manuel Goepfert
Aiuto per la traduzione : Arnaldo La Scala

Contatto : metmap@orbifly.com




FONTI E CREDITI :

   NOAA